createdAt,value
2023-03-06T00:02:13.286Z,547.00
2023-03-06T00:06:13.297Z,547.00
2023-03-06T00:10:13.198Z,548.00
2023-03-06T00:14:13.140Z,547.00
2023-03-06T00:18:13.110Z,549.00
2023-03-06T00:22:13.122Z,551.00
2023-03-06T00:26:13.252Z,545.00
2023-03-06T00:30:13.445Z,547.00
2023-03-06T00:34:13.470Z,549.00
2023-03-06T00:38:13.355Z,550.00
2023-03-06T00:42:13.346Z,554.00
2023-03-06T00:46:13.547Z,554.00
2023-03-06T00:50:13.478Z,557.00
2023-03-06T00:54:13.468Z,556.00
2023-03-06T00:58:13.412Z,552.00
2023-03-06T01:02:13.352Z,552.00
2023-03-06T01:06:13.329Z,552.00
2023-03-06T01:10:13.217Z,550.00
2023-03-06T01:14:13.059Z,555.00
2023-03-06T01:18:13.064Z,559.00
2023-03-06T01:22:13.206Z,551.00
2023-03-06T01:26:13.368Z,551.00
2023-03-06T01:30:13.503Z,553.00
2023-03-06T01:34:13.686Z,555.00
2023-03-06T01:38:13.877Z,558.00
2023-03-06T01:42:14.001Z,556.00
2023-03-06T01:46:14.224Z,549.00
2023-03-06T01:50:14.343Z,548.00
2023-03-06T01:54:14.538Z,542.00
2023-03-06T01:58:14.766Z,538.00
2023-03-06T02:02:14.995Z,544.00
2023-03-06T02:06:15.157Z,547.00
2023-03-06T02:10:15.276Z,545.00
2023-03-06T02:14:15.511Z,542.00
2023-03-06T02:18:15.586Z,547.00
2023-03-06T02:22:15.684Z,548.00
2023-03-06T02:26:15.795Z,547.00
2023-03-06T02:30:15.972Z,546.00
2023-03-06T02:34:16.126Z,548.00
2023-03-06T02:38:16.317Z,546.00
2023-03-06T02:42:16.397Z,547.00
2023-03-06T02:46:16.515Z,549.00
2023-03-06T02:50:16.666Z,551.00
2023-03-06T02:54:16.788Z,550.00
2023-03-06T02:58:16.865Z,545.00
2023-03-06T03:02:16.983Z,547.00
2023-03-06T03:06:17.122Z,545.00
2023-03-06T03:10:17.232Z,547.00
2023-03-06T03:14:17.322Z,552.00
2023-03-06T03:18:17.475Z,550.00
2023-03-06T03:22:17.521Z,546.00
2023-03-06T03:26:17.714Z,543.00
2023-03-06T03:30:17.719Z,543.00
2023-03-06T03:34:17.779Z,546.00
2023-03-06T03:38:17.812Z,547.00
2023-03-06T03:42:17.852Z,553.00
2023-03-06T03:46:17.927Z,555.00
2023-03-06T03:50:17.980Z,549.00
2023-03-06T03:54:18.056Z,550.00
2023-03-06T03:58:18.106Z,552.00
2023-03-06T04:02:18.378Z,545.00
2023-03-06T04:06:18.270Z,549.00
2023-03-06T04:10:18.386Z,546.00
2023-03-06T04:14:18.434Z,551.00
2023-03-06T04:18:18.520Z,555.00
2023-03-06T04:22:18.631Z,556.00
2023-03-06T04:26:18.776Z,551.00
2023-03-06T04:30:18.889Z,548.00
2023-03-06T04:34:19.080Z,550.00
2023-03-06T04:38:19.228Z,552.00
2023-03-06T04:42:19.346Z,552.00
2023-03-06T04:46:19.483Z,553.00
2023-03-06T04:50:19.656Z,554.00
2023-03-06T04:54:19.817Z,551.00
2023-03-06T04:58:20.031Z,549.00
2023-03-06T05:02:20.029Z,547.00
2023-03-06T05:06:19.979Z,545.00
2023-03-06T05:10:19.912Z,546.00
2023-03-06T05:14:20.381Z,544.00
2023-03-06T05:18:19.827Z,549.00
2023-03-06T05:22:19.783Z,553.00
2023-03-06T05:26:19.771Z,553.00
2023-03-06T05:30:19.726Z,550.00
2023-03-06T05:34:19.689Z,550.00
2023-03-06T05:38:19.678Z,551.00
2023-03-06T05:42:19.823Z,555.00
2023-03-06T05:46:20.056Z,548.00
2023-03-06T05:50:20.396Z,553.00
2023-03-06T05:54:19.899Z,549.00
2023-03-06T05:58:19.883Z,551.00
2023-03-06T06:02:19.886Z,545.00
2023-03-06T06:06:19.807Z,550.00
2023-03-06T06:10:19.776Z,550.00
2023-03-06T06:14:19.737Z,551.00
2023-03-06T06:18:19.671Z,551.00
2023-03-06T06:22:19.647Z,551.00
2023-03-06T06:26:19.870Z,551.00
2023-03-06T06:30:20.039Z,550.00
2023-03-06T06:34:20.253Z,549.00
2023-03-06T06:38:20.891Z,598.00
2023-03-06T06:42:31.960Z,750.00
2023-03-06T06:46:59.252Z,826.00
2023-03-06T06:50:21.580Z,963.00
2023-03-06T06:54:20.985Z,1126.00
2023-03-06T06:58:20.891Z,1235.00
2023-03-06T07:02:20.919Z,1365.00
2023-03-06T07:06:20.423Z,1464.00
2023-03-06T07:10:21.225Z,1566.00
2023-03-06T07:14:20.417Z,1689.00
2023-03-06T07:18:20.303Z,1787.00
2023-03-06T07:22:20.249Z,1875.00
2023-03-06T07:26:20.210Z,1948.00
2023-03-06T07:30:20.409Z,2070.00
2023-03-06T07:34:20.595Z,2191.00
2023-03-06T07:38:20.748Z,2316.00
2023-03-06T07:42:20.860Z,2442.00
2023-03-06T07:46:21.502Z,2461.00
2023-03-06T07:50:21.426Z,2417.00
2023-03-06T07:54:21.245Z,2492.00
2023-03-06T07:58:21.413Z,1173.00
2023-03-06T08:02:21.388Z,1663.00
2023-03-06T08:06:21.501Z,1848.00
2023-03-06T08:10:21.616Z,1905.00
2023-03-06T08:14:21.733Z,2057.00
2023-03-06T08:18:21.921Z,2170.00
2023-03-06T08:22:22.428Z,2314.00
2023-03-06T08:26:22.069Z,2451.00
2023-03-06T08:30:22.109Z,2481.00
2023-03-06T08:34:22.427Z,2564.00
2023-03-06T08:38:22.309Z,2690.00
2023-03-06T08:42:22.385Z,2698.00
2023-03-06T08:46:22.953Z,2753.00
2023-03-06T08:50:22.925Z,2717.00
2023-03-06T08:54:22.963Z,2771.00
2023-03-06T08:58:22.563Z,2799.00
2023-03-06T09:02:23.003Z,2816.00
2023-03-06T09:06:22.636Z,2863.00
2023-03-06T09:10:22.742Z,2915.00
2023-03-06T09:14:22.745Z,2953.00
2023-03-06T09:18:22.852Z,2988.00
2023-03-06T09:22:22.907Z,3014.00
2023-03-06T09:26:28.068Z,3056.00
2023-03-06T09:30:23.959Z,3055.00
2023-03-06T09:34:22.902Z,3074.00
2023-03-06T09:38:22.991Z,3078.00
2023-03-06T09:42:23.006Z,3144.00
2023-03-06T09:46:23.190Z,3130.00
2023-03-06T09:50:23.482Z,3110.00
2023-03-06T09:54:23.456Z,1508.00
2023-03-06T09:58:23.471Z,2185.00
2023-03-06T10:02:24.046Z,2333.00
2023-03-06T10:06:23.794Z,2136.00
2023-03-06T10:10:23.936Z,2141.00
2023-03-06T10:14:24.066Z,2166.00
2023-03-06T10:18:24.446Z,2183.00
2023-03-06T10:22:24.175Z,2213.00
2023-03-06T10:26:24.571Z,2229.00
2023-03-06T10:30:24.240Z,2258.00
2023-03-06T10:34:24.496Z,2299.00
2023-03-06T10:38:24.500Z,2318.00
2023-03-06T10:42:24.447Z,2338.00
2023-03-06T10:46:24.490Z,2388.00
2023-03-06T10:50:25.041Z,2313.00
2023-03-06T10:54:24.997Z,1403.00
2023-03-06T10:58:24.668Z,1062.00
2023-03-06T11:02:24.990Z,1390.00
2023-03-06T11:06:24.858Z,1577.00
2023-03-06T11:10:25.504Z,1706.00
2023-03-06T11:14:27.604Z,1797.00
2023-03-06T11:18:24.983Z,1959.00
2023-03-06T11:22:25.007Z,2084.00
2023-03-06T11:26:24.983Z,2190.00
2023-03-06T11:30:24.903Z,2289.00
2023-03-06T11:34:25.001Z,2409.00
2023-03-06T11:38:25.037Z,2443.00
2023-03-06T11:42:25.018Z,2478.00
2023-03-06T11:46:24.847Z,2443.00
2023-03-06T11:50:24.695Z,2395.00
2023-03-06T11:54:24.984Z,2366.00
2023-03-06T11:58:24.631Z,2367.00
2023-03-06T12:02:24.673Z,2384.00
2023-03-06T12:06:24.996Z,2362.00
2023-03-06T12:10:24.587Z,2352.00
2023-03-06T12:14:24.491Z,2328.00
2023-03-06T12:18:26.055Z,2305.00
2023-03-06T12:22:24.421Z,2314.00
2023-03-06T12:26:24.517Z,2303.00
2023-03-06T12:30:24.529Z,2294.00
2023-03-06T12:34:25.013Z,2291.00
2023-03-06T12:38:24.729Z,2248.00
2023-03-06T12:42:25.009Z,2263.00
2023-03-06T12:46:25.165Z,2249.00
2023-03-06T12:50:25.535Z,2235.00
2023-03-06T12:54:25.401Z,2221.00
2023-03-06T12:58:25.568Z,2206.00
2023-03-06T13:02:25.755Z,2182.00
2023-03-06T13:06:25.901Z,2208.00
2023-03-06T13:10:26.040Z,2209.00
2023-03-06T13:14:26.206Z,2205.00
2023-03-06T13:18:26.361Z,2199.00
2023-03-06T13:22:26.553Z,2194.00
2023-03-06T13:26:27.039Z,2178.00
2023-03-06T13:30:26.849Z,2175.00
2023-03-06T13:34:27.008Z,2177.00
2023-03-06T13:38:27.178Z,2163.00
2023-03-06T13:42:27.367Z,2133.00
2023-03-06T13:46:27.551Z,2118.00
2023-03-06T13:50:27.652Z,2108.00
2023-03-06T13:54:27.840Z,2099.00
2023-03-06T13:58:27.978Z,2075.00
2023-03-06T14:02:28.123Z,2061.00
2023-03-06T14:06:28.306Z,2050.00
2023-03-06T14:10:28.465Z,2034.00
2023-03-06T14:14:28.612Z,2011.00
2023-03-06T14:18:28.753Z,1983.00
2023-03-06T14:22:28.937Z,1971.00
2023-03-06T14:26:29.070Z,1950.00
2023-03-06T14:30:29.246Z,1925.00
2023-03-06T14:34:29.473Z,1918.00
2023-03-06T14:38:29.578Z,1896.00
2023-03-06T14:42:29.721Z,1879.00
2023-03-06T14:46:29.886Z,1870.00
2023-03-06T14:50:29.991Z,1864.00
2023-03-06T14:54:30.137Z,1849.00
2023-03-06T14:58:30.252Z,1838.00
2023-03-06T15:02:30.403Z,1824.00
2023-03-06T15:06:30.579Z,1815.00
2023-03-06T15:10:30.606Z,1794.00
2023-03-06T15:14:30.676Z,1788.00
2023-03-06T15:18:30.769Z,1777.00
2023-03-06T15:22:31.133Z,1766.00
2023-03-06T15:26:30.998Z,1753.00
2023-03-06T15:30:31.106Z,1748.00
2023-03-06T15:34:31.174Z,1731.00
2023-03-06T15:38:31.344Z,1717.00
2023-03-06T15:42:31.508Z,1708.00
2023-03-06T15:46:31.559Z,1707.00
2023-03-06T15:50:31.641Z,1695.00
2023-03-06T15:54:32.993Z,1687.00
2023-03-06T15:58:31.940Z,1680.00
2023-03-06T16:02:32.040Z,1667.00
2023-03-06T16:06:32.218Z,1662.00
2023-03-06T16:10:32.363Z,1662.00
2023-03-06T16:14:32.539Z,1653.00
2023-03-06T16:18:32.715Z,1650.00
2023-03-06T16:22:32.923Z,1655.00
2023-03-06T16:26:33.139Z,1648.00
2023-03-06T16:30:33.378Z,1648.00
2023-03-06T16:34:33.562Z,1636.00
2023-03-06T16:38:33.734Z,1629.00
2023-03-06T16:42:33.969Z,1633.00
2023-03-06T16:46:34.188Z,1623.00
2023-03-06T16:50:34.325Z,1619.00
2023-03-06T16:54:34.425Z,1618.00
2023-03-06T16:58:34.457Z,1620.00
2023-03-06T17:02:34.516Z,1619.00
2023-03-06T17:06:34.575Z,1605.00
2023-03-06T17:10:34.591Z,1607.00
2023-03-06T17:14:34.631Z,1609.00
2023-03-06T17:18:34.624Z,1607.00
2023-03-06T17:22:34.680Z,1607.00
2023-03-06T17:26:34.742Z,1603.00
2023-03-06T17:30:34.735Z,1602.00
2023-03-06T17:34:34.824Z,1605.00
2023-03-06T17:38:34.887Z,1606.00
2023-03-06T17:42:34.931Z,1602.00
2023-03-06T17:46:35.054Z,1591.00
2023-03-06T17:50:35.072Z,1583.00
2023-03-06T17:54:35.149Z,1582.00
2023-03-06T17:58:35.233Z,1586.00
2023-03-06T18:02:35.326Z,1578.00
2023-03-06T18:06:35.390Z,1575.00
2023-03-06T18:10:35.459Z,1577.00
2023-03-06T18:14:35.529Z,1558.00
2023-03-06T18:18:35.600Z,1551.00
2023-03-06T18:22:35.751Z,1543.00
2023-03-06T18:26:35.878Z,1540.00
2023-03-06T18:30:35.986Z,1538.00
2023-03-06T18:34:36.677Z,1532.00
2023-03-06T18:38:36.190Z,1528.00
2023-03-06T18:42:36.355Z,1532.00
2023-03-06T18:46:36.485Z,1522.00
2023-03-06T18:50:36.619Z,1516.00
2023-03-06T18:54:36.739Z,1507.00
2023-03-06T18:58:36.932Z,1493.00
2023-03-06T19:02:37.068Z,1488.00
2023-03-06T19:06:37.175Z,1486.00
2023-03-06T19:10:37.347Z,1483.00
2023-03-06T19:14:37.509Z,1472.00
2023-03-06T19:18:37.738Z,1463.00
2023-03-06T19:22:37.875Z,1455.00
2023-03-06T19:26:38.021Z,1450.00
2023-03-06T19:30:38.210Z,1446.00
2023-03-06T19:34:38.393Z,1436.00
2023-03-06T19:38:38.582Z,1423.00
2023-03-06T19:42:38.750Z,1415.00
2023-03-06T19:46:38.900Z,1405.00
2023-03-06T19:50:39.094Z,1397.00
2023-03-06T19:54:39.320Z,1399.00
2023-03-06T19:58:39.484Z,1399.00
2023-03-06T20:02:39.720Z,1394.00
2023-03-06T20:06:39.901Z,1391.00
2023-03-06T20:10:40.105Z,1378.00
2023-03-06T20:14:40.298Z,1374.00
2023-03-06T20:18:40.524Z,1364.00
2023-03-06T20:22:40.484Z,1359.00
2023-03-06T20:26:40.487Z,1352.00
2023-03-06T20:30:40.403Z,1346.00
2023-03-06T20:34:40.379Z,1347.00
2023-03-06T20:38:40.317Z,1340.00
2023-03-06T20:42:40.269Z,1334.00
2023-03-06T20:46:40.326Z,1321.00
2023-03-06T20:50:40.220Z,1321.00
2023-03-06T20:54:40.164Z,1318.00
2023-03-06T20:58:40.098Z,1313.00
2023-03-06T21:02:40.115Z,1308.00
2023-03-06T21:06:40.309Z,1309.00
2023-03-06T21:10:40.495Z,1300.00
2023-03-06T21:14:40.655Z,1296.00
2023-03-06T21:18:40.915Z,1283.00
2023-03-06T21:22:41.026Z,1284.00
2023-03-06T21:26:41.188Z,1280.00
2023-03-06T21:30:41.316Z,1275.00
2023-03-06T21:34:41.374Z,1266.00
2023-03-06T21:38:41.484Z,1264.00
2023-03-06T21:42:42.270Z,1264.00
2023-03-06T21:46:41.625Z,1266.00
2023-03-06T21:50:41.675Z,1253.00
2023-03-06T21:54:41.704Z,1257.00
2023-03-06T21:58:41.761Z,1249.00
2023-03-06T22:02:41.840Z,1245.00
2023-03-06T22:06:41.869Z,1238.00
2023-03-06T22:10:41.895Z,1239.00
2023-03-06T22:14:42.250Z,1234.00
2023-03-06T22:18:41.973Z,1228.00
2023-03-06T22:22:41.997Z,1224.00
2023-03-06T22:26:42.079Z,1215.00
2023-03-06T22:30:42.052Z,1215.00
2023-03-06T22:34:42.141Z,1209.00
2023-03-06T22:38:42.149Z,1204.00
2023-03-06T22:42:42.202Z,1204.00
2023-03-06T22:46:42.320Z,1204.00
2023-03-06T22:50:42.387Z,1193.00
2023-03-06T22:54:42.494Z,1197.00
2023-03-06T22:58:42.527Z,1190.00
2023-03-06T23:02:42.569Z,1183.00
2023-03-06T23:06:42.648Z,1173.00
2023-03-06T23:10:42.770Z,1167.00
2023-03-06T23:14:42.859Z,1164.00
2023-03-06T23:18:42.939Z,1160.00
2023-03-06T23:22:43.026Z,1151.00
2023-03-06T23:26:43.156Z,1154.00
2023-03-06T23:30:43.275Z,1150.00
2023-03-06T23:34:43.272Z,1151.00
2023-03-06T23:38:43.286Z,1146.00
2023-03-06T23:42:43.380Z,1139.00
2023-03-06T23:46:43.386Z,1138.00
2023-03-06T23:50:43.373Z,1127.00
2023-03-06T23:54:43.443Z,1126.00
2023-03-06T23:58:43.486Z,1122.00
